Preble, New York
Current Conditions -  °F | °C
As of 7:15 AM on Monday 24 Nov 2014 (Local Time) from KN03 Reporting Station
Overcast Overcast  
Wind Chill: 57°   Ceiling: 2300
Heat Index: 57°   Visibility: 10mi
Dew Point: 54°   Wind: 15mph
Humidity: 88%   Direction: 180°S
Pressure: 29.48"   Gusts: 22mph
Location:  42.74°N, 76.15°W
Report Text: KN03 241215Z AUTO 18013G19KT 10SM SCT017 BKN023 OVC031 14/12 A2948 RMK AO2
Loading
Personal Weather Stations






























Interactive Weather Map New forecast layout! Learn more

10-Day Weather Forecast

Advertisements
Track Severe Weather on mobile